Tiempo atmosférico en la estación meteorológica de Becerreá, Lugo (1080 m.)



Fecha
DESCASC
Temp. máxima en grados centígrados (hora)
DESCASC
Temp. mínima en grados centígrados (hora)
DESCASC
Temp. media en grados centígrados
DESCASC
Racha de viento máxima en m/sg (hora)
DESCASC
Velocidad máxima media en intervalos de 10 minutos(hora)
DESCASC
Precipitaciones diarias en mm
DESCASC
Precipitaciones de 00:00 a 06:00 en mm
DESCASC
Precipitaciones de 06:00 a 12:00 en mm
DESCASC
Precipitaciones de 12:00 a 18:00 en mm
DESCASC
Precipitaciones de 18:00 a 24:00 en mm
DESCASC
10-07-2020 20.6 (16:30) 9.9 (06:40) 15.3 6.11 (19:40) 2.22 (19:40) 0 0 0 0 0
09-07-2020 23.1 (17:00) 12.6 (06:40) 17.9 5.56 (18:20) 2.5 (17:10) 0 0 0 0 0
08-07-2020 23.7 (15:50) 12.6 (07:40) 18.2 6.67 (04:50) 3.89 (05:00) 0.2 0 0 0 0.2
07-07-2020 25 (15:20) 10.7 (06:00) 17.8 7.78 (07:50) 5.28 (07:40) 0 0 0 0 0
06-07-2020 21.7 (15:00) 12.1 (00:00) 16.9 5.28 (15:30) 1.94 (15:30) 0 0 0 0 0
05-07-2020 25.8 (16:00) 14.7 (00:00) 20.2 5.56 (21:50) 2.5 (18:00) 0 0 0 0 0
04-07-2020 24.1 (17:00) 11.2 (00:00) 17.7 6.39 (19:40) 2.78 (19:30) 0 0 0 0 0
03-07-2020 19.3 (17:20) 6.7 (07:40) 13 5.28 (17:20) 2.5 (21:20) 0 0 0 0 0
02-07-2020 13.4 (15:50) 7.7 (00:00) 10.5 6.94 (18:30) 3.33 (19:00) 0.2 0 0.2 0 0
01-07-2020 16.7 (16:50) 10.8 (00:00) 13.8 6.67 (19:10) 3.33 (18:00) 0 0 0 0 0
30-06-2020 24.7 (17:00) 11.3 (00:00) 18 6.94 (17:10) 3.33 (21:10) 0 0 0 0 0
29-06-2020 20.5 (18:20) 11.7 (00:00) 16.1 4.72 (19:40) 2.5 (20:20) 0.4 0.2 0.2 0 0
28-06-2020 17.1 (15:20) 10.5 (00:00) 13.8 7.78 (19:50) 3.89 (10:10) 1.6 0 0 1.6 0
27-06-2020 16.1 (19:10) 12 (00:00) 14.1 8.89 (15:10) 3.61 (03:40) 0.8 0 0.4 0.4 0
26-06-2020 17.3 (16:40) 10 (00:00) 13.6 8.33 (15:50) 4.17 (08:40) 0 0 0 0 0
25-06-2020 20.3 (13:40) 12.6 (00:00) 16.4 7.5 (00:20) 3.61 (15:10) 0.6 0 0.6 0 0
24-06-2020 25.5 (17:10) 15.2 (00:00) 20.3 12.5 (20:30) 5 (21:30) 2.8 0 0 0 2.8
23-06-2020 29.3 (18:40) 16.6 (00:00) 22.9 8.89 (05:20) 5.28 (06:30) 0 0 0 0 0
22-06-2020 26.1 (17:40) 12.3 (00:00) 19.2 6.39 (17:30) 2.78 (17:10) 0 0 0 0 0
21-06-2020 19.1 (18:00) 9.2 (00:00) 14.2 7.5 (05:10) 3.89 (04:50) 0 0 0 0 0
20-06-2020 20.7 (18:20) 8.9 (00:00) 14.8 8.06 (20:40) 3.89 (00:10) 0 0 0 0 0
19-06-2020 18.2 (17:40) 6.5 (00:00) 12.4 7.22 (14:50) 4.44 (23:50) 0 0 0 0 0
18-06-2020 15.7 (18:10) 5.6 (00:00) 10.6 6.67 (17:40) 3.61 (22:40) 0 0 0 0 0
17-06-2020 10.2 (18:10) 7.1 (00:00) 8.6 6.67 (16:30) 3.61 (16:10) 0.4 0 0.4 0 0
16-06-2020 9.5 (14:40) 8.1 (00:00) 8.8 7.78 (04:10) 3.61 (21:20) 11.2 4 4.8 1.4 1
15-06-2020 11.7 (16:40) 7.5 (00:00) 9.6 8.06 (08:20) 2.5 (16:10) 0.4 0 0.4 0 0
14-06-2020 10.4 (14:10) 6.5 (00:00) 8.4 7.5 (18:30) 3.33 (18:30) 3.2 0 0.2 3 0
13-06-2020 10.1 (16:30) 6.1 (00:00) 8.1 11.39 (00:50) 3.89 (00:40) 5.8 1.8 1.6 2.4 0
12-06-2020 9.4 (18:00) 4.8 (00:00) 7.1 14.44 (03:00) 5.56 (01:50) 22.4 9.8 3.4 4 5.2

Gráficas

Temp. máximas Temp. mínimas Temp. medias Precipitaciones Rachas de viento máximas Velocidades máximas media en intervalos de 10 minutos

Datos horarios

Fecha y hora oficial Temperatura (ºC) Velocidad del viento (km/h) Dirección del viento Racha (km/h) Dirección de racha Precipitación (mm) Presión (hPa) Tendencia (hPa) Humedad (%)
2020-07-11 23:00:00 16.8 2 Este 10 Nordeste 0 -- -- 88
2020-07-11 22:00:00 18.4 2 Nordeste 9 Este 0 -- -- 83
2020-07-11 21:00:00 19.8 2 Nordeste 13 Nordeste 0 -- -- 80
2020-07-11 20:00:00 20.3 4 Nordeste 16 Norte 0 -- -- 77
2020-07-11 19:00:00 22.2 5 Nordeste 17 Norte 0 -- -- 70
2020-07-11 18:00:00 23.4 5 Nordeste 13 Nordeste 0 -- -- 67
2020-07-11 17:00:00 23.5 2 Nordeste 11 Noroeste 0 -- -- 66
2020-07-11 16:00:00 23.4 3 Este 14 Nordeste 0 -- -- 66
2020-07-11 15:00:00 22.9 3 Este 13 Este 0 -- -- 67
2020-07-11 14:00:00 21.9 3 Este 10 Este 0 -- -- 71
2020-07-11 13:00:00 20.4 3 Nordeste 12 Este 0 -- -- 75
2020-07-11 12:00:00 18.4 3 Nordeste 13 Norte 0 -- -- 82
2020-07-11 11:00:00 15.5 4 Este 14 Sudeste 0 -- -- 89
2020-07-11 10:00:00 13.3 4 Este 20 Nordeste 0 -- -- 93
2020-07-11 09:00:00 11.7 3 Nordeste 18 Sudeste 0 -- -- 100
2020-07-11 08:00:00 10.2 3 Nordeste 14 Nordeste 0 -- -- 100
2020-07-11 07:00:00 9.5 3 Este 11 Nordeste 0 -- -- 100
2020-07-11 06:00:00 9.7 3 Este 12 Sudoeste 0 -- -- 100
2020-07-11 05:00:00 9.8 3 Este 19 Norte 0 -- -- 100
2020-07-11 04:00:00 9.9 3 Nordeste 19 Este 0 -- -- 100
2020-07-11 03:00:00 9.9 3 Nordeste 19 Este 0 -- -- 100
2020-07-11 02:00:00 10.1 3 Nordeste 15 Nordeste 0 -- -- 100
2020-07-11 01:00:00 10.4 4 Nordeste 15 Nordeste 0 -- -- 100
2020-07-11 00:00:00 10.8 4 Nordeste 17 Nordeste 0 -- -- 99
2020-07-10 23:00:00 11.3 5 Nordeste 21 Este 0 -- -- 97
2020-07-10 22:00:00 12.2 5 Nordeste 22 Nordeste 0 -- -- 95
2020-07-10 21:00:00 13.6 5 Nordeste 22 Nordeste 0 -- -- 91
2020-07-10 20:00:00 15.3 6 Nordeste 22 Nordeste 0 -- -- 85
2020-07-10 19:00:00 18.1 5 Nordeste 18 Nordeste 0 -- -- 77
2020-07-10 18:00:00 19.2 5 Nordeste 20 Este 0 -- -- 74
2020-07-10 17:00:00 20 5 Nordeste 19 Norte 0 -- -- 73
2020-07-10 16:00:00 20.5 6 Nordeste 18 Nordeste 0 -- -- 72
2020-07-10 15:00:00 20.4 6 Nordeste 15 Norte 0 -- -- 74
2020-07-10 14:00:00 19.7 4 Nordeste 15 Nordeste 0 -- -- 76
2020-07-10 13:00:00 18.3 3 Este 11 Sudeste 0 -- -- 82
2020-07-10 12:00:00 15.6 4 Nordeste 14 Sudeste 0 -- -- 96
2020-07-10 11:00:00 11.9 3 Este 19 Este 0 -- -- 100
2020-07-10 10:00:00 10.9 4 Nordeste 17 Este 0 -- -- 100
2020-07-10 09:00:00 10.4 4 Nordeste 16 Nordeste 0 -- -- 100
2020-07-10 08:00:00 10.2 3 Nordeste 11 Norte 0 -- -- 100
2020-07-10 07:00:00 10 2 Este 14 Este 0 -- -- 100
2020-07-10 06:00:00 10.4 3 Este 10 Nordeste 0 -- -- 97
2020-07-10 05:00:00 10.9 0 Calma 6 Este 0 -- -- 96
2020-07-10 04:00:00 12.2 2 Este 12 Nordeste 0 -- -- 92
2020-07-10 03:00:00 12.9 2 Nordeste 7 Este 0 -- -- 91
2020-07-10 02:00:00 13.4 2 Este 11 Este 0 -- -- 91
2020-07-10 01:00:00 13.8 0 Calma 12 Norte 0 -- -- 85
2020-07-10 00:00:00 14.3 0 Calma 11 Norte 0 -- -- 83
2020-07-09 23:00:00 15 0 Calma 15 Norte 0 -- -- 82
2020-07-09 22:00:00 15.5 6 Nordeste 14 Nordeste 0 -- -- 74
2020-07-09 21:00:00 17.5 5 Norte 15 Noroeste 0 -- -- 72
2020-07-09 20:00:00 19 7 Noroeste 17 Noroeste 0 -- -- 73
2020-07-09 19:00:00 21.1 7 Noroeste 20 Noroeste 0 -- -- 72
2020-07-09 18:00:00 22.2 6 Norte 18 Norte 0 -- -- 69
2020-07-09 17:00:00 23.1 8 Noroeste 18 Noroeste 0 -- -- 70
2020-07-09 16:00:00 22.7 7 Noroeste 19 Norte 0 -- -- 73
2020-07-09 15:00:00 22.2 6 Norte 14 Norte 0 -- -- 74
2020-07-09 14:00:00 21.1 5 Norte 13 Norte 0 -- -- 82
2020-07-09 13:00:00 20.3 2 Nordeste 8 Este 0 -- -- 86
2020-07-09 12:00:00 17.3 2 Nordeste 8 Este 0 -- -- 100
2020-07-09 11:00:00 14.3 3 Este 14 Nordeste 0 -- -- 100
2020-07-09 10:00:00 13.2 3 Este 17 Este 0 -- -- 100
2020-07-09 09:00:00 12.9 2 Nordeste 9 Este 0 -- -- 100
2020-07-09 08:00:00 12.7 0 Calma 11 Sudeste 0 -- -- 100
2020-07-09 07:00:00 12.6 3 Este 10 Este 0 -- -- 100
2020-07-09 06:00:00 12.8 2 Nordeste 16 Este 0 -- -- 100
2020-07-09 05:00:00 13.4 2 Nordeste 9 Nordeste 0 -- -- 100
2020-07-09 04:00:00 13.5 3 Nordeste 12 Este 0 -- -- 100
2020-07-09 03:00:00 14 2 Este 7 Sudeste 0 -- -- 100
2020-07-09 02:00:00 14.4 2 Sudeste 7 Este 0 -- -- 100
2020-07-09 01:00:00 14.6 0 Calma 12 Este 0 -- -- 100
2020-07-09 00:00:00 14.8 3 Este 14 Sudeste 0.2 -- -- 99
2020-07-08 23:00:00 15.1 3 Este 20 Sudeste 0 -- -- 98
2020-07-08 22:00:00 16.1 3 Este 15 Sudeste 0 -- -- 93
2020-07-08 21:00:00 17.1 5 Sudeste 14 Sudeste 0 -- -- 78
2020-07-08 20:00:00 18.2 4 Este 22 Sudeste 0 -- -- 85
2020-07-08 19:00:00 20.5 2 Nordeste 13 Nordeste 0 -- -- 81
2020-07-08 18:00:00 22.2 5 Nordeste 17 Norte 0 -- -- 77
2020-07-08 17:00:00 22.8 5 Nordeste 14 Nordeste 0 -- -- 75
2020-07-08 16:00:00 23.7 4 Nordeste 12 Nordeste 0 -- -- 75
2020-07-08 15:00:00 22.7 3 Este 10 Nordeste 0 -- -- 77
2020-07-08 14:00:00 21.6 2 Este 11 Nordeste 0 -- -- 79
2020-07-08 13:00:00 19.7 3 Nordeste 13 Este 0 -- -- 87
2020-07-08 12:00:00 16.5 3 Este 12 Nordeste 0 -- -- 98
2020-07-08 11:00:00 14.5 3 Este 12 Sudeste 0 -- -- 100
2020-07-08 10:00:00 13.3 2 Este 14 Este 0 -- -- 100
2020-07-08 09:00:00 12.8 4 Este 16 Este 0 -- -- 100
2020-07-08 08:00:00 12.6 8 Sudeste 17 Sudeste 0 -- -- 99
2020-07-08 07:00:00 13.5 6 Sudeste 20 Este 0 -- -- 95
2020-07-08 06:00:00 14.8 4 Sudeste 23 Sudeste 0 -- -- 89
2020-07-08 05:00:00 16.9 14 Sudeste 24 Sudeste 0 -- -- 85
2020-07-08 04:00:00 16.5 5 Sudeste 13 Sudeste 0 -- -- 94
2020-07-08 03:00:00 18.4 5 Sudeste 12 Sudeste 0 -- -- 87
2020-07-08 02:00:00 17.1 6 Sudeste 17 Este 0 -- -- 93
2020-07-08 01:00:00 17.1 3 Este 7 Este 0 -- -- 87
2020-07-08 00:00:00 17.8 0 Calma 8 Este 0 -- -- 85
2020-07-07 23:00:00 18.9 0 Calma 5 Nordeste 0 -- -- 82
2020-07-07 22:00:00 20.4 2 Nordeste 5 Nordeste 0 -- -- 77
2020-07-07 21:00:00 21.5 0 Calma 7 Nordeste 0 -- -- 75
2020-07-07 20:00:00 22.4 5 Norte 8 Norte 0 -- -- 73
2020-07-07 19:00:00 23.7 5 Norte 13 Norte 0 -- -- 68
2020-07-07 18:00:00 24.3 7 Norte 12 Norte 0 -- -- 68
2020-07-07 17:00:00 24.6 8 Norte 14 Norte 0 -- -- 68
2020-07-07 16:00:00 25 5 Norte 12 Norte 0 -- -- 68
2020-07-07 15:00:00 24.3 2 Este 9 Este 0 -- -- 68
2020-07-07 14:00:00 23.3 3 Este 9 Este 0 -- -- 69
2020-07-07 13:00:00 21.5 3 Este 9 Sudeste 0 -- -- 73
2020-07-07 12:00:00 19.1 3 Este 13 Este 0 -- -- 81
2020-07-07 11:00:00 16.4 5 Este 18 Este 0 -- -- 87
2020-07-07 10:00:00 14.9 4 Este 24 Sudeste 0 -- -- 90
2020-07-07 09:00:00 15.4 14 Sudeste 27 Sudeste 0 -- -- 83
2020-07-07 08:00:00 14.5 17 Sudeste 28 Sudeste 0 -- -- 93
2020-07-07 07:00:00 10.8 14 Sudeste 24 Sudeste 0 -- -- 100
2020-07-07 06:00:00 10.7 13 Sudeste 22 Este 0 -- -- 100
2020-07-07 05:00:00 10.9 8 Sudeste 16 Sudeste 0 -- -- 100
2020-07-07 04:00:00 11 4 Sudeste 16 Sudeste 0 -- -- 100
2020-07-07 03:00:00 11.2 3 Este 15 Este 0 -- -- 100
2020-07-07 02:00:00 11.4 3 Este 15 Este 0 -- -- 100
2020-07-07 01:00:00 11.7 2 Este 16 Nordeste 0 -- -- 99
2020-07-07 00:00:00 12.1 3 Este 12 Sudeste 0 -- -- 98
2020-07-06 23:00:00 12.9 2 Este 11 Este 0 -- -- 96
2020-07-06 22:00:00 14.4 2 Este 8 Norte 0 -- -- 91
2020-07-06 21:00:00 16.9 2 Nordeste 11 Nordeste 0 -- -- 86
2020-07-06 20:00:00 18.1 5 Nordeste 13 Nordeste 0 -- -- 83
2020-07-06 19:00:00 20 5 Nordeste 11 Nordeste 0 -- -- 77
2020-07-06 18:00:00 20.8 3 Nordeste 12 Norte 0 -- -- 77
2020-07-06 17:00:00 21 3 Nordeste 17 Nordeste 0 -- -- 76
2020-07-06 16:00:00 21.5 6 Nordeste 19 Nordeste 0 -- -- 76
2020-07-06 15:00:00 21.7 4 Nordeste 16 Nordeste 0 -- -- 76
2020-07-06 14:00:00 20.8 3 Nordeste 12 Este 0 -- -- 79
2020-07-06 13:00:00 19.3 3 Nordeste 13 Este 0 -- -- 88
2020-07-06 12:00:00 16 3 Nordeste 14 Sudeste 0 -- -- 100
2020-07-06 11:00:00 14.1 3 Nordeste 16 Sudeste 0 -- -- 100
2020-07-06 10:00:00 13.3 3 Nordeste 16 Nordeste 0 -- -- 100
2020-07-06 09:00:00 12.9 3 Nordeste 15 Nordeste 0 -- -- 100
2020-07-06 08:00:00 12.9 3 Nordeste 13 Norte 0 -- -- 100
2020-07-06 07:00:00 13 3 Nordeste 15 Nordeste 0 -- -- 100
2020-07-06 06:00:00 13 4 Nordeste 14 Este 0 -- -- 100
2020-07-06 05:00:00 13.3 3 Nordeste 14 Norte 0 -- -- 100
2020-07-06 04:00:00 13.9 3 Nordeste 13 Nordeste 0 -- -- 100
2020-07-06 03:00:00 14.1 2 Nordeste 11 Este 0 -- -- 99
2020-07-06 02:00:00 14.4 3 Este 12 Este 0 -- -- 98
2020-07-06 01:00:00 14.7 2 Nordeste 9 Nordeste 0 -- -- 95
2020-07-06 00:00:00 15.6 2 Nordeste 13 Nordeste 0 -- -- 92
2020-07-05 23:00:00 16.8 3 Nordeste 16 Este 0 -- -- 87
2020-07-05 22:00:00 18.2 5 Nordeste 20 Nordeste 0 -- -- 79
2020-07-05 21:00:00 19.7 6 Norte 14 Noroeste 0 -- -- 77
2020-07-05 20:00:00 21.8 7 Noroeste 18 Noroeste 0 -- -- 69
2020-07-05 19:00:00 23.8 7 Noroeste 19 Norte 0 -- -- 66
2020-07-05 18:00:00 24.4 9 Noroeste 19 Norte 0 -- -- 68
2020-07-05 17:00:00 25.1 7 Norte 17 Norte 0 -- -- 66
2020-07-05 16:00:00 25.8 4 Noroeste 14 Noroeste 0 -- -- 61
2020-07-05 15:00:00 25 6 Noroeste 14 Noroeste 0 -- -- 65
2020-07-05 14:00:00 24.2 7 Noroeste 14 Sudoeste 0 -- -- 66
2020-07-05 13:00:00 23.2 3 Nordeste 11 Norte 0 -- -- 67
2020-07-05 12:00:00 20.6 4 Norte 10 Norte 0 -- -- 77
2020-07-05 11:00:00 20.4 2 Nordeste 6 Sudeste 0 -- -- 78
2020-07-05 10:00:00 19.3 2 Este 9 Sudeste 0 -- -- 78
2020-07-05 09:00:00 16.6 2 Este 10 Sudeste 0 -- -- 81
2020-07-05 08:00:00 14.7 4 Sudeste 13 Este 0 -- -- 84
2020-07-05 07:00:00 15 3 Este 15 Este 0 -- -- 86
2020-07-05 06:00:00 16 2 Nordeste 9 Sudeste 0 -- -- 83
2020-07-05 05:00:00 15.7 0 Calma 9 Sudeste 0 -- -- 84
2020-07-05 04:00:00 15.5 3 Este 10 Este 0 -- -- 85
2020-07-05 03:00:00 14.7 0 Calma 5 Este 0 -- -- 87
2020-07-05 02:00:00 15.4 2 Este 8 Este 0 -- -- 86
2020-07-05 01:00:00 15.8 0 Calma 8 Este 0 -- -- 84
2020-07-05 00:00:00 16.4 2 Nordeste 10 Nordeste 0 -- -- 83
2020-07-04 23:00:00 16.9 4 Nordeste 11 Nordeste 0 -- -- 80
2020-07-04 22:00:00 17.2 4 Nordeste 15 Norte 0 -- -- 79
2020-07-04 21:00:00 18.5 5 Noroeste 15 Noroeste 0 -- -- 73
2020-07-04 20:00:00 20 8 Noroeste 23 Noroeste 0 -- -- 69
2020-07-04 19:00:00 23.1 7 Noroeste 15 Norte 0 -- -- 59
2020-07-04 18:00:00 23.8 6 Norte 15 Norte 0 -- -- 56
2020-07-04 17:00:00 24.1 5 Norte 15 Noroeste 0 -- -- 57
2020-07-04 16:00:00 23.1 6 Norte 15 Norte 0 -- -- 56
2020-07-04 15:00:00 22.4 4 Norte 17 Norte 0 -- -- 54
2020-07-04 14:00:00 21.7 2 Este 9 Nordeste 0 -- -- 51
2020-07-04 13:00:00 21.4 2 Este 10 Nordeste 0 -- -- 61
2020-07-04 12:00:00 18.9 3 Este 9 Este 0 -- -- 58
2020-07-04 11:00:00 16.5 2 Este 8 Norte 0 -- -- 49
2020-07-04 10:00:00 15.9 2 Este 7 Sudeste 0 -- -- 79
2020-07-04 09:00:00 14.2 2 Este 7 Sudeste 0 -- -- 83
2020-07-04 08:00:00 12.9 2 Este 7 Este 0 -- -- 89
2020-07-04 07:00:00 11.9 0 Calma 5 Nordeste 0 -- -- 94
2020-07-04 06:00:00 12 0 Calma 7 Nordeste 0 -- -- 94
2020-07-04 05:00:00 11.6 0 Calma 8 Norte 0 -- -- 95
2020-07-04 04:00:00 12.1 0 Calma 6 Noroeste 0 -- -- 93
2020-07-04 03:00:00 11.3 0 Calma 5 Sudeste 0 -- -- 96
2020-07-04 02:00:00 11.3 0 Calma 6 Sudeste 0 -- -- 96
2020-07-04 01:00:00 11.4 3 Este 8 Este 0 -- -- 96
2020-07-04 00:00:00 11.5 3 Sudeste 6 Este 0 -- -- 92
2020-07-03 23:00:00 12.3 5 Norte 14 Noroeste 0 -- -- 87
2020-07-03 22:00:00 12.9 8 Noroeste 15 Noroeste 0 -- -- 87
2020-07-03 21:00:00 15.3 8 Noroeste 15 Oeste 0 -- -- 79
2020-07-03 20:00:00 16.5 7 Noroeste 17 Noroeste 0 -- -- 77
2020-07-03 19:00:00 18.1 7 Noroeste 16 Norte 0 -- -- 71
2020-07-03 18:00:00 19.1 7 Noroeste 19 Oeste 0 -- -- 60
2020-07-03 17:00:00 18.9 7 Oeste 15 Noroeste 0 -- -- 56
2020-07-03 16:00:00 18.3 6 Noroeste 14 Oeste 0 -- -- 59
2020-07-03 15:00:00 17.6 5 Nordeste 12 Norte 0 -- -- 63
2020-07-03 14:00:00 16.5 3 Este 10 Este 0 -- -- 69
2020-07-03 13:00:00 14.7 3 Nordeste 11 Nordeste 0 -- -- 72
2020-07-03 12:00:00 13 3 Este 12 Sudeste 0 -- -- 85
2020-07-03 11:00:00 9.9 3 Este 9 Sudeste 0 -- -- 99
2020-07-03 10:00:00 8.3 2 Este 12 Este 0 -- -- 100
2020-07-03 09:00:00 7 2 Este 13 Sudeste 0 -- -- 100
2020-07-03 08:00:00 6.7 0 Calma 10 Sudoeste 0 -- -- 100
2020-07-03 07:00:00 6.8 2 Este 11 Este 0 -- -- 100
2020-07-03 06:00:00 6.9 2 Nordeste 13 Este 0 -- -- 100
2020-07-03 05:00:00 7.1 3 Nordeste 11 Nordeste 0 -- -- 100
2020-07-03 04:00:00 6.9 2 Nordeste 12 Nordeste 0 -- -- 100
2020-07-03 03:00:00 7 3 Este 15 Nordeste 0 -- -- 100
2020-07-03 02:00:00 7.5 5 Nordeste 15 Nordeste 0 -- -- 99
2020-07-03 01:00:00 7.8 4 Nordeste 14 Nordeste 0 -- -- 97
2020-07-03 00:00:00 7.7 5 Nordeste 16 Nordeste 0 -- -- 96
2020-07-02 23:00:00 8.4 5 Nordeste 23 Norte 0 -- -- 94
2020-07-02 22:00:00 9.5 5 Norte 14 Noroeste 0 -- -- 89
2020-07-02 21:00:00 10.8 6 Norte 20 Norte 0 -- -- 86
2020-07-02 20:00:00 11.5 8 Norte 23 Norte 0 -- -- 88
2020-07-02 19:00:00 11.1 12 Noroeste 25 Noroeste 0 -- -- 90
2020-07-02 18:00:00 12.6 8 Noroeste 19 Noroeste 0 -- -- 84
2020-07-02 17:00:00 12.7 6 Noroeste 15 Norte 0 -- -- 84
2020-07-02 16:00:00 13.2 7 Noroeste 16 Oeste 0 -- -- 78
2020-07-02 15:00:00 11.7 5 Noroeste 17 Noroeste 0 -- -- 91
2020-07-02 14:00:00 12.6 8 Noroeste 18 Oeste 0 -- -- 86
2020-07-02 13:00:00 11.6 4 Oeste 14 Sudoeste 0 -- -- 87
2020-07-02 12:00:00 10.5 7 Noroeste 15 Noroeste 0 -- -- 91
2020-07-02 11:00:00 9.4 8 Oeste 14 Oeste 0 -- -- 98
2020-07-02 10:00:00 8.4 6 Oeste 10 Oeste 0 -- -- 100
2020-07-02 09:00:00 8.2 5 Oeste 9 Noroeste 0.2 -- -- 100
2020-07-02 08:00:00 8 4 Noroeste 10 Oeste 0 -- -- 100
2020-07-02 07:00:00 8.2 4 Noroeste 14 Norte 0 -- -- 100
2020-07-02 06:00:00 8.3 8 Oeste 18 Oeste 0 -- -- 100
2020-07-02 05:00:00 8.4 7 Oeste 17 Noroeste 0 -- -- 100
2020-07-02 04:00:00 8.7 8 Oeste 16 Noroeste 0 -- -- 100
2020-07-02 03:00:00 9.6 7 Oeste 15 Sudoeste 0 -- -- 100
2020-07-02 02:00:00 10.2 7 Oeste 14 Oeste 0 -- -- 100
2020-07-02 01:00:00 10.5 6 Oeste 21 Oeste 0 -- -- 100
2020-07-02 00:00:00 10.8 9 Oeste 18 Oeste 0 -- -- 100
2020-07-01 23:00:00 11.7 9 Oeste 17 Noroeste 0 -- -- 98
2020-07-01 22:00:00 13.5 7 Noroeste 17 Oeste 0 -- -- 95
2020-07-01 21:00:00 14.5 8 Oeste 21 Oeste 0 -- -- 89
2020-07-01 20:00:00 15.2 10 Oeste 24 Sudoeste 0 -- -- 85
2020-07-01 19:00:00 15.9 10 Oeste 23 Oeste 0 -- -- 83
2020-07-01 18:00:00 16 12 Oeste 24 Oeste 0 -- -- 86
2020-07-01 17:00:00 16.6 8 Oeste 23 Oeste 0 -- -- 84
2020-07-01 16:00:00 16.4 6 Oeste 19 Oeste 0 -- -- 86
2020-07-01 15:00:00 15.7 6 Oeste 20 Oeste 0 -- -- 91
2020-07-01 14:00:00 15.3 7 Sudoeste 19 Oeste 0 -- -- 91
2020-07-01 13:00:00 14.5 7 Sudoeste 19 Sudoeste 0 -- -- 100
2020-07-01 12:00:00 13.2 7 Sudoeste 17 Sudoeste 0 -- -- 100
2020-07-01 11:00:00 13.2 4 Sudoeste 13 Oeste 0 -- -- 100
2020-07-01 10:00:00 13 5 Sudoeste 15 Sudoeste 0 -- -- 100
2020-07-01 09:00:00 12.7 5 Sudoeste 14 Sudoeste 0 -- -- 100
2020-07-01 08:00:00 12.9 2 Sudoeste 8 Sudoeste 0 -- -- 100
2020-07-01 07:00:00 13.1 2 Sudoeste 12 Oeste 0 -- -- 100
2020-07-01 06:00:00 13.1 7 Oeste 15 Sudoeste 0 -- -- 100
2020-07-01 05:00:00 13.3 10 Sudoeste 15 Oeste 0 -- -- 100
2020-07-01 04:00:00 14.1 8 Sudoeste 9 Sudoeste 0 -- -- 97
2020-07-01 03:00:00 14.7 3 Sudoeste 7 Oeste 0 -- -- 94
2020-07-01 02:00:00 15.2 4 Oeste 7 Noroeste 0 -- -- 94
2020-07-01 01:00:00 15.2 5 Noroeste 13 Oeste 0 -- -- 94
2020-07-01 00:00:00 15.1 7 Oeste 14 Oeste 0 -- -- 94
2020-06-30 23:00:00 15.7 8 Oeste 15 Oeste 0 -- -- 93
2020-06-30 22:00:00 17.1 8 Oeste 18 Noroeste 0 -- -- 88
2020-06-30 21:00:00 18.8 8 Noroeste 18 Noroeste 0 -- -- 82
2020-06-30 20:00:00 20.6 7 Noroeste 21 Norte 0 -- -- 78
2020-06-30 19:00:00 23.1 9 Noroeste 21 Noroeste 0 -- -- 71
2020-06-30 18:00:00 23.3 10 Noroeste 25 Sudoeste 0 -- -- 73
2020-06-30 17:00:00 24.7 10 Oeste 24 Oeste 0 -- -- 67
2020-06-30 16:00:00 24 8 Oeste 20 Noroeste 0 -- -- 70
2020-06-30 15:00:00 23.1 3 Oeste 14 Norte 0 -- -- 71
2020-06-30 14:00:00 23 3 Nordeste 9 Norte 0 -- -- 74
2020-06-30 13:00:00 21.4 2 Norte 7 Norte 0 -- -- 74
2020-06-30 12:00:00 19.2 2 Este 8 Sudeste 0 -- -- 79
2020-06-30 11:00:00 16.8 2 Este 8 Este 0 -- -- 81
2020-06-30 10:00:00 16.4 3 Este 9 Este 0 -- -- 82
2020-06-30 09:00:00 14.8 2 Este 11 Este 0 -- -- 83
2020-06-30 08:00:00 13.4 3 Este 14 Este 0 -- -- 86
2020-06-30 07:00:00 12.3 4 Este 18 Este 0 -- -- 86
2020-06-30 06:00:00 11.3 2 Este 12 Sudeste 0 -- -- 87
2020-06-30 05:00:00 11.9 4 Nordeste 18 Este 0 -- -- 87
2020-06-30 04:00:00 11.9 3 Nordeste 16 Este 0 -- -- 87
2020-06-30 03:00:00 12 3 Nordeste 13 Nordeste 0 -- -- 84
2020-06-30 02:00:00 12.4 3 Nordeste 18 Este 0 -- -- 81
2020-06-30 01:00:00 12.7 3 Nordeste 13 Norte 0 -- -- 80
2020-06-30 00:00:00 13.4 4 Nordeste 16 Este 0 -- -- 79
2020-06-29 23:00:00 13.6 3 Nordeste 15 Nordeste 0 -- -- 73
2020-06-29 22:00:00 14.6 6 Nordeste 16 Nordeste 0 -- -- 67
2020-06-29 21:00:00 16.5 6 Noroeste 17 Noroeste 0 -- -- 61
2020-06-29 20:00:00 17.8 9 Noroeste 17 Noroeste 0 -- -- 62
2020-06-29 19:00:00 20 6 Noroeste 15 Norte 0 -- -- 63
2020-06-29 18:00:00 20.4 6 Noroeste 14 Norte 0 -- -- 58
2020-06-29 17:00:00 20.2 5 Norte 15 Norte 0 -- -- 59
2020-06-29 16:00:00 19.6 5 Norte 15 Nordeste 0 -- -- 65
2020-06-29 15:00:00 18.7 5 Norte 14 Norte 0 -- -- 76
2020-06-29 14:00:00 18 5 Norte 14 Norte 0 -- -- 80
2020-06-29 13:00:00 16.8 5 Nordeste 13 Norte 0 -- -- 83
2020-06-29 12:00:00 14.3 3 Norte 8 Norte 0 -- -- 100
2020-06-29 11:00:00 13.2 2 Nordeste 9 Nordeste 0 -- -- 100
2020-06-29 10:00:00 13 0 Calma 5 Este 0.2 -- -- 100
2020-06-29 09:00:00 12.2 0 Calma 6 Nordeste 0 -- -- 100
2020-06-29 08:00:00 12 0 Calma 4 Nordeste 0 -- -- 100
2020-06-29 07:00:00 11.8 0 Calma 8 Noroeste 0 -- -- 100
2020-06-29 06:00:00 11.7 4 Norte 10 Noroeste 0 -- -- 100
2020-06-29 05:00:00 12 3 Noroeste 6 Noroeste 0 -- -- 100
2020-06-29 04:00:00 12.3 3 Noroeste 6 Noroeste 0.2 -- -- 100
2020-06-29 03:00:00 12.3 4 Noroeste 13 Noroeste 0 -- -- 100
2020-06-29 02:00:00 12.8 3 Oeste 6 Oeste 0 -- -- 100
2020-06-29 01:00:00 12.8 3 Noroeste 10 Noroeste 0 -- -- 100
2020-06-29 00:00:00 12.7 5 Oeste 14 Oeste 0 -- -- 100
2020-06-28 23:00:00 12.8 9 Oeste 17 Oeste 0 -- -- 100
2020-06-28 22:00:00 13.6 6 Noroeste 18 Noroeste 0 -- -- 100
2020-06-28 21:00:00 14.8 8 Noroeste 24 Oeste 0 -- -- 98
2020-06-28 20:00:00 15.4 12 Oeste 28 Oeste 0 -- -- 94
2020-06-28 19:00:00 15.6 13 Oeste 25 Sudoeste 0 -- -- 98
2020-06-28 18:00:00 15.6 9 Oeste 19 Oeste 0.8 -- -- 98
2020-06-28 17:00:00 16.5 10 Oeste 22 Oeste 0 -- -- 92
2020-06-28 16:00:00 16.2 7 Oeste 19 Sudoeste 0 -- -- 93
2020-06-28 15:00:00 16.6 8 Oeste 22 Oeste 0 -- -- 96
2020-06-28 14:00:00 15.6 10 Oeste 26 Oeste 0 -- -- 100
2020-06-28 13:00:00 14.8 5 Oeste 15 Oeste 0.8 -- -- 99
2020-06-28 12:00:00 14.8 2 Oeste 15 Oeste 0 -- -- 98
2020-06-28 11:00:00 13.8 8 Sudoeste 23 Sudoeste 0 -- -- 99
2020-06-28 10:00:00 13.3 11 Oeste 20 Oeste 0 -- -- 92
2020-06-28 09:00:00 13.4 8 Sudoeste 16 Sudoeste 0 -- -- 90
2020-06-28 08:00:00 12.2 5 Sudoeste 11 Oeste 0 -- -- 97
2020-06-28 07:00:00 10.9 6 Sudoeste 15 Sudoeste 0 -- -- 98
2020-06-28 06:00:00 10.7 9 Sudoeste 17 Oeste 0 -- -- 98
2020-06-28 05:00:00 10.6 10 Sudoeste 17 Oeste 0 -- -- 96
2020-06-28 04:00:00 10.6 6 Sudoeste 19 Sudoeste 0 -- -- 99
2020-06-28 03:00:00 11.1 8 Sudoeste 21 Sudoeste 0 -- -- 99
2020-06-28 02:00:00 11.3 4 Sudoeste 14 Oeste 0 -- -- 99
2020-06-28 01:00:00 12 4 Sudoeste 18 Sudoeste 0 -- -- 99
2020-06-28 00:00:00 13 5 Sudoeste 15 Oeste 0 -- -- 99
2020-06-27 23:00:00 13.5 6 Sudoeste 23 Oeste 0 -- -- 99
2020-06-27 22:00:00 14.4 6 Oeste 20 Oeste 0 -- -- 96
2020-06-27 21:00:00 16.1 6 Sudoeste 19 Oeste 0 -- -- 87
2020-06-27 20:00:00 15.6 8 Sur 24 Sudoeste 0 -- -- 89
2020-06-27 19:00:00 15.9 10 Sur 24 Sudoeste 0 -- -- 93
2020-06-27 18:00:00 15.9 9 Sudoeste 23 Sudoeste 0.2 -- -- 100
2020-06-27 17:00:00 15.2 5 Sudoeste 27 Oeste 0 -- -- 97
2020-06-27 16:00:00 15.4 8 Sudoeste 32 Sur 0.2 -- -- 94
2020-06-27 15:00:00 15 9 Sudoeste 27 Sur 0 -- -- 95
2020-06-27 14:00:00 15 8 Sur 27 Sudoeste 0 -- -- 95
2020-06-27 13:00:00 14.3 8 Sur 30 Sur 0 -- -- 97
2020-06-27 12:00:00 13.7 8 Sudoeste 22 Sudoeste 0 -- -- 98
2020-06-27 11:00:00 13.3 5 Sudoeste 26 Oeste 0 -- -- 99
2020-06-27 10:00:00 12.7 8 Sur 22 Sudoeste 0 -- -- 100
2020-06-27 09:00:00 12.2 5 Sur 24 Sur 0 -- -- 100
2020-06-27 08:00:00 12 8 Sudoeste 26 Sudoeste 0 -- -- 100
2020-06-27 07:00:00 12.2 8 Sudoeste 27 Sudoeste 0.4 -- -- 100
2020-06-27 06:00:00 12.2 8 Sur 24 Sudoeste 0 -- -- 100
2020-06-27 05:00:00 12 9 Sudoeste 30 Sudoeste 0 -- -- 100
2020-06-27 04:00:00 12.2 12 Sudoeste 32 Sur 0 -- -- 100
2020-06-27 03:00:00 12.3 11 Sudoeste 30 Sudoeste 0 -- -- 100
2020-06-27 02:00:00 12.2 10 Sudoeste 24 Sur 0 -- -- 99
2020-06-27 01:00:00 12.3 11 Sudoeste 27 Sur 0 -- -- 98
2020-06-27 00:00:00 12.6 12 Sudoeste 30 Sudoeste 0 -- -- 99
2020-06-26 23:00:00 13.1 9 Sudoeste 26 Sudoeste 0 -- -- 96
2020-06-26 22:00:00 13.4 10 Sudoeste 26 Sur 0 -- -- 94
2020-06-26 21:00:00 14.3 8 Sur 27 Sudoeste 0 -- -- 91
2020-06-26 20:00:00 15.1 9 Sudoeste 22 Sudoeste 0 -- -- 86
2020-06-26 19:00:00 15.6 8 Sur 24 Sudoeste 0 -- -- 82
2020-06-26 18:00:00 16.5 8 Sur 21 Oeste 0 -- -- 78
2020-06-26 17:00:00 16.9 6 Sudoeste 22 Sudoeste 0 -- -- 78
2020-06-26 16:00:00 16.6 7 Sur 30 Sudoeste 0 -- -- 77
2020-06-26 15:00:00 15.8 12 Oeste 27 Sudoeste 0 -- -- 75
2020-06-26 14:00:00 16.1 9 Oeste 22 Oeste 0 -- -- 74
2020-06-26 13:00:00 14.8 6 Sudoeste 27 Oeste 0 -- -- 84
2020-06-26 12:00:00 13.2 6 Sudoeste 23 Oeste 0 -- -- 89
2020-06-26 11:00:00 12.2 8 Sudoeste 13 Sudoeste 0 -- -- 97
2020-06-26 10:00:00 11.1 6 Sudoeste 18 Sudoeste 0 -- -- 100
2020-06-26 09:00:00 10.1 8 Sudoeste 26 Oeste 0 -- -- 100
2020-06-26 08:00:00 10.2 5 Sudoeste 15 Sur 0 -- -- 100
2020-06-26 07:00:00 10.2 3 Sur 13 Oeste 0 -- -- 100
2020-06-26 06:00:00 10.1 8 Oeste 16 Sudoeste 0 -- -- 100
2020-06-26 05:00:00 10.2 3 Sudoeste 13 Sudeste 0 -- -- 100
2020-06-26 04:00:00 10.6 8 Sur 19 Oeste 0 -- -- 100
2020-06-26 03:00:00 11.1 10 Oeste 17 Sudoeste 0 -- -- 100
2020-06-26 02:00:00 11.4 10 Oeste 18 Oeste 0 -- -- 100
2020-06-26 01:00:00 12 10 Oeste 17 Sudoeste 0 -- -- 100
2020-06-26 00:00:00 12.6 8 Sudoeste 17 Oeste 0 -- -- 100
2020-06-25 23:00:00 13 11 Oeste 18 Oeste 0 -- -- 100
2020-06-25 22:00:00 13.5 8 Oeste 15 Noroeste 0 -- -- 99
2020-06-25 21:00:00 14.5 10 Oeste 21 Noroeste 0 -- -- 96
2020-06-25 20:00:00 15.9 10 Noroeste 19 Noroeste 0 -- -- 91
2020-06-25 19:00:00 18.5 8 Noroeste 22 Oeste 0 -- -- 85
2020-06-25 18:00:00 19.4 11 Noroeste 24 Oeste 0 -- -- 81
2020-06-25 17:00:00 19.9 8 Oeste 22 Oeste 0 -- -- 79
2020-06-25 16:00:00 19 11 Oeste 26 Sudoeste 0 -- -- 84
2020-06-25 15:00:00 17.5 12 Oeste 22 Oeste 0 -- -- 91
2020-06-25 14:00:00 19.1 9 Oeste 20 Oeste 0 -- -- 85
2020-06-25 13:00:00 19.6 2 Este 6 Este 0 -- -- 78
2020-06-25 12:00:00 16.9 2 Este 5 Este 0 -- -- 92
2020-06-25 11:00:00 15.7 0 Calma 7 Noroeste 0 -- -- 95
2020-06-25 10:00:00 15 2 Sudoeste 13 Sudoeste 0.6 -- -- 93
2020-06-25 09:00:00 13.7 3 Sudeste 17 Oeste 0 -- -- 93
2020-06-25 08:00:00 14.6 3 Sudeste 10 Este 0 -- -- 87
2020-06-25 07:00:00 13.6 3 Sudeste 7 Sudeste 0 -- -- 92
2020-06-25 06:00:00 14.4 2 Este 5 Sudeste 0 -- -- 89
2020-06-25 05:00:00 14.8 3 Sudoeste 5 Este 0 -- -- 90
2020-06-25 04:00:00 15 0 Calma 8 Sudoeste 0 -- -- 85
2020-06-25 03:00:00 15.5 6 Oeste 11 Sudoeste 0 -- -- 86
2020-06-25 02:00:00 15.8 6 Sudoeste 10 Sudoeste 0 -- -- 82
2020-06-25 01:00:00 17.2 7 Sur 27 Sudeste 0 -- -- 67
2020-06-25 00:00:00 16.7 14 Sudeste 37 Sudeste 0 -- -- 70
2020-06-24 23:00:00 15.6 15 Sudeste 31 Sudeste 0 -- -- 79
2020-06-24 22:00:00 15.7 9 Este 40 Este 0 -- -- 86
2020-06-24 21:00:00 15.2 14 Sudeste 45 Sudeste 2.8 -- -- 93
2020-06-24 20:00:00 17.9 9 Sudeste 31 Sudeste 0 -- -- 72
2020-06-24 19:00:00 21.7 6 Nordeste 18 Norte 0 -- -- 66
2020-06-24 18:00:00 23.9 7 Norte 21 Noroeste 0 -- -- 69
2020-06-24 17:00:00 25 11 Noroeste 35 Oeste 0 -- -- 65
2020-06-24 16:00:00 25 8 Oeste 20 Oeste 0 -- -- 61
2020-06-24 15:00:00 24.3 9 Oeste 21 Oeste 0 -- -- 64
2020-06-24 14:00:00 23.8 9 Oeste 21 Sudoeste 0 -- -- 67
2020-06-24 13:00:00 22.9 10 Oeste 18 Oeste 0 -- -- 72
2020-06-24 12:00:00 22.3 5 Sudoeste 11 Oeste 0 -- -- 68
2020-06-24 11:00:00 20.8 4 Sudoeste 18 Oeste 0 -- -- 74
2020-06-24 10:00:00 20.2 11 Oeste 17 Oeste 0 -- -- 72
2020-06-24 09:00:00 21.1 6 Sur 13 Sudeste 0 -- -- 61
2020-06-24 08:00:00 19.6 3 Sudeste 11 Sudeste 0 -- -- 68
2020-06-24 07:00:00 20.1 9 Sudeste 17 Sudeste 0 -- -- 60
2020-06-24 06:00:00 19.9 4 Sudoeste 13 Sudeste 0 -- -- 61
2020-06-24 05:00:00 19.2 8 Sudeste 13 Sudeste 0 -- -- 65
2020-06-24 04:00:00 19.2 5 Sudoeste 9 Sudoeste 0 -- -- 59
2020-06-24 03:00:00 19.8 9 Sudoeste 12 Sudoeste 0 -- -- 52
2020-06-24 02:00:00 19.6 6 Sudoeste 9 Sudoeste 0 -- -- 60
2020-06-24 01:00:00 20.2 5 Oeste 7 Oeste 0 -- -- 60
2020-06-24 00:00:00 20.5 5 Sudoeste 12 Oeste 0 -- -- 64
2020-06-23 23:00:00 21.4 10 Oeste 18 Oeste 0 -- -- 66
2020-06-23 22:00:00 23 13 Oeste 18 Oeste 0 -- -- 57
2020-06-23 21:00:00 25.5 8 Oeste 22 Noroeste 0 -- -- 51
2020-06-23 20:00:00 27.3 6 Oeste 18 Noroeste 0 -- -- 36
2020-06-23 19:00:00 29 7 Oeste 20 Noroeste 0 -- -- 32
2020-06-23 18:00:00 29.2 7 Oeste 22 Sudoeste 0 -- -- 32
2020-06-23 17:00:00 29 7 Sudoeste 20 Sudoeste 0 -- -- 30
2020-06-23 16:00:00 28.6 9 Oeste 21 Oeste 0 -- -- 40
2020-06-23 15:00:00 27.4 5 Noroeste 12 Noroeste 0 -- -- 43
2020-06-23 14:00:00 27.8 3 Este 10 Sudeste 0 -- -- 45
2020-06-23 13:00:00 27.5 3 Este 12 Sudeste 0 -- -- 49
2020-06-23 12:00:00 25.4 4 Este 21 Este 0 -- -- 53
2020-06-23 11:00:00 23.4 6 Sudeste 27 Sudeste 0 -- -- 49
2020-06-23 10:00:00 21.9 10 Sudeste 32 Sudeste 0 -- -- 47
2020-06-23 09:00:00 21.2 14 Sudeste 31 Sudeste 0 -- -- 43
2020-06-23 08:00:00 20.4 14 Sudeste 28 Sudeste 0 -- -- 42
2020-06-23 07:00:00 19.8 17 Sudeste 32 Sudeste 0 -- -- 47
2020-06-23 06:00:00 19.6 15 Sudeste 32 Sudeste 0 -- -- 47
2020-06-23 05:00:00 19.2 15 Sudeste 27 Sudeste 0 -- -- 53
2020-06-23 04:00:00 19 13 Sudeste 23 Sudeste 0 -- -- 59
2020-06-23 03:00:00 18.2 4 Sudeste 13 Este 0 -- -- 80
2020-06-23 02:00:00 17 3 Este 9 Sudeste 0 -- -- 85
2020-06-23 01:00:00 16.9 0 Calma 9 Este 0 -- -- 78
2020-06-23 00:00:00 17.8 0 Calma 9 Nordeste 0 -- -- 77
2020-06-22 23:00:00 18.9 0 Calma 8 Este 0 -- -- 76
2020-06-22 22:00:00 20.4 4 Nordeste 10 Norte 0 -- -- 75
2020-06-22 21:00:00 22.1 4 Nordeste 15 Noroeste 0 -- -- 74
2020-06-22 20:00:00 22.8 6 Noroeste 18 Noroeste 0 -- -- 67
2020-06-22 19:00:00 24.6 8 Noroeste 19 Oeste 0 -- -- 62
2020-06-22 18:00:00 25.8 9 Oeste 23 Oeste 0 -- -- 59
2020-06-22 17:00:00 26 9 Oeste 20 Sudoeste 0 -- -- 61
2020-06-22 16:00:00 26 3 Sudeste 10 Sur 0 -- -- 56
2020-06-22 15:00:00 25.2 2 Este 13 Este 0 -- -- 53
2020-06-22 14:00:00 24.2 3 Nordeste 12 Sudeste 0 -- -- 57
2020-06-22 13:00:00 23.5 5 Este 17 Sudeste 0 -- -- 56
2020-06-22 12:00:00 21.6 6 Este 20 Este 0 -- -- 62
2020-06-22 11:00:00 19.3 5 Este 17 Sudeste 0 -- -- 70
2020-06-22 10:00:00 17.9 6 Este 17 Sudeste 0 -- -- 69
2020-06-22 09:00:00 16.2 8 Sudeste 19 Sudeste 0 -- -- 73
2020-06-22 08:00:00 14.3 0 Calma 5 Nordeste 0 -- -- 81
2020-06-22 07:00:00 12.3 0 Calma 8 Sudeste 0 -- -- 93
2020-06-22 06:00:00 12.7 2 Sudeste 10 Sudeste 0 -- -- 92
2020-06-22 05:00:00 13 2 Este 11 Este 0 -- -- 97
2020-06-22 04:00:00 13.2 0 Calma 9 Nordeste 0 -- -- 100
2020-06-22 03:00:00 13.2 2 Este 11 Este 0 -- -- 100
2020-06-22 02:00:00 13.1 2 Este 6 Nordeste 0 -- -- 100
2020-06-22 01:00:00 13.2 0 Calma 6 Este 0 -- -- 99
2020-06-22 00:00:00 13.5 0 Calma 8 Nordeste 0 -- -- 98
2020-06-21 23:00:00 14.1 4 Norte 15 Oeste 0 -- -- 98
2020-06-21 22:00:00 15 8 Noroeste 19 Noroeste 0 -- -- 93
2020-06-21 21:00:00 16.6 9 Noroeste 18 Oeste 0 -- -- 84
2020-06-21 20:00:00 17.7 10 Oeste 20 Noroeste 0 -- -- 77
2020-06-21 19:00:00 18.7 5 Noroeste 16 Oeste 0 -- -- 77
2020-06-21 18:00:00 19.1 6 Oeste 19 Noroeste 0 -- -- 75
2020-06-21 17:00:00 17.2 7 Oeste 18 Oeste 0 -- -- 84
2020-06-21 16:00:00 17.2 8 Oeste 19 Oeste 0 -- -- 80
2020-06-21 15:00:00 16.4 8 Oeste 19 Oeste 0 -- -- 83
2020-06-21 14:00:00 17.4 10 Oeste 20 Oeste 0 -- -- 79
2020-06-21 13:00:00 15.8 6 Oeste 13 Oeste 0 -- -- 86
2020-06-21 12:00:00 14.1 6 Sudoeste 13 Sur 0 -- -- 90
2020-06-21 11:00:00 12.6 7 Sur 15 Sur 0 -- -- 94
2020-06-21 10:00:00 11.6 5 Oeste 18 Sudoeste 0 -- -- 98
2020-06-21 09:00:00 10.7 6 Sudoeste 20 Sudoeste 0 -- -- 100
2020-06-21 08:00:00 10.1 3 Sur 16 Oeste 0 -- -- 100
2020-06-21 07:00:00 9.8 5 Sudoeste 20 Sudoeste 0 -- -- 100
2020-06-21 06:00:00 9.6 6 Sudoeste 27 Sudoeste 0 -- -- 100
2020-06-21 05:00:00 9.4 13 Sudoeste 23 Sudoeste 0 -- -- 100
2020-06-21 04:00:00 9.2 6 Sudoeste 18 Sudoeste 0 -- -- 98
2020-06-21 03:00:00 9.9 11 Sudoeste 22 Sudoeste 0 -- -- 100
2020-06-21 02:00:00 9.9 11 Sudoeste 16 Oeste 0 -- -- 96
2020-06-21 01:00:00 10.1 13 Sudoeste 22 Oeste 0 -- -- 93
2020-06-21 00:00:00 11.1 13 Oeste 23 Sudoeste 0 -- -- 87
2020-06-20 23:00:00 12.1 10 Oeste 23 Oeste 0 -- -- 89
2020-06-20 22:00:00 13.5 11 Oeste 23 Oeste 0 -- -- 82
2020-06-20 21:00:00 15 12 Oeste 29 Oeste 0 -- -- 83
2020-06-20 20:00:00 17.4 12 Oeste 28 Oeste 0 -- -- 74
2020-06-20 19:00:00 19.2 10 Oeste 22 Oeste 0 -- -- 67
2020-06-20 18:00:00 20.5 7 Oeste 26 Oeste 0 -- -- 53
2020-06-20 17:00:00 19.9 10 Sudoeste 28 Oeste 0 -- -- 41
2020-06-20 16:00:00 19.3 7 Sudoeste 23 Sudoeste 0 -- -- 49
2020-06-20 15:00:00 18.2 10 Sudoeste 28 Oeste 0 -- -- 59
2020-06-20 14:00:00 17 10 Oeste 24 Oeste 0 -- -- 65
2020-06-20 13:00:00 16.1 13 Oeste 24 Oeste 0 -- -- 73
2020-06-20 12:00:00 14.6 10 Oeste 21 Oeste 0 -- -- 88
2020-06-20 11:00:00 13 9 Oeste 17 Oeste 0 -- -- 91
2020-06-20 10:00:00 12.4 0 Calma 8 Sudoeste 0 -- -- 92
2020-06-20 09:00:00 11.1 4 Sudoeste 11 Sur 0 -- -- 91
2020-06-20 08:00:00 9.8 5 Sur 12 Sudoeste 0 -- -- 100
2020-06-20 07:00:00 9.2 6 Sudoeste 11 Oeste 0 -- -- 100
2020-06-20 06:00:00 9.5 5 Sudoeste 15 Sudoeste 0 -- -- 100
2020-06-20 05:00:00 9.8 8 Oeste 14 Oeste 0 -- -- 100
2020-06-20 04:00:00 9.9 8 Sudoeste 14 Sudoeste 0 -- -- 100
2020-06-20 03:00:00 10.2 10 Oeste 15 Oeste 0 -- -- 99
2020-06-20 02:00:00 10.5 6 Sudoeste 17 Oeste 0 -- -- 98
2020-06-20 01:00:00 10.5 10 Oeste 22 Oeste 0 -- -- 95
2020-06-20 00:00:00 11.3 15 Oeste 24 Oeste 0 -- -- 91
2020-06-19 23:00:00 12.7 12 Oeste 23 Oeste 0 -- -- 85
2020-06-19 22:00:00 14 11 Oeste 22 Noroeste 0 -- -- 81
2020-06-19 21:00:00 15.7 10 Oeste 22 Oeste 0 -- -- 65
2020-06-19 20:00:00 16.5 8 Oeste 22 Oeste 0 -- -- 61
2020-06-19 19:00:00 17.8 9 Oeste 26 Oeste 0 -- -- 59
2020-06-19 18:00:00 17.9 10 Oeste 22 Oeste 0 -- -- 60
2020-06-19 17:00:00 17.6 8 Oeste 22 Noroeste 0 -- -- 56
2020-06-19 16:00:00 16.9 9 Oeste 21 Oeste 0 -- -- 56
2020-06-19 15:00:00 15.9 9 Oeste 26 Oeste 0 -- -- 61
2020-06-19 14:00:00 14.9 8 Oeste 20 Sudoeste 0 -- -- 72
2020-06-19 13:00:00 13.4 11 Oeste 19 Oeste 0 -- -- 80
2020-06-19 12:00:00 11.7 7 Sudoeste 13 Sudoeste 0 -- -- 85
2020-06-19 11:00:00 10.1 4 Oeste 11 Oeste 0 -- -- 88
2020-06-19 10:00:00 9 3 Oeste 8 Sur 0 -- -- 87
2020-06-19 09:00:00 8.4 3 Sudoeste 5 Sur 0 -- -- 88
2020-06-19 08:00:00 7.5 3 Noroeste 5 Noroeste 0 -- -- 92
2020-06-19 07:00:00 6.5 2 Oeste 4 Noroeste 0 -- -- 95
2020-06-19 06:00:00 7.2 3 Oeste 10 Noroeste 0 -- -- 92
2020-06-19 05:00:00 7.5 5 Oeste 10 Oeste 0 -- -- 89
2020-06-19 04:00:00 7.4 4 Noroeste 12 Oeste 0 -- -- 90
2020-06-19 03:00:00 7.8 6 Oeste 9 Oeste 0 -- -- 98
2020-06-19 02:00:00 8 3 Norte 6 Norte 0 -- -- 98
2020-06-19 01:00:00 8.7 0 Calma 7 Oeste 0 -- -- 98
2020-06-19 00:00:00 8.9 4 Noroeste 16 Noroeste 0 -- -- 98
2020-06-18 23:00:00 9.1 10 Oeste 22 Oeste 0 -- -- 92
2020-06-18 22:00:00 10.5 12 Noroeste 21 Noroeste 0 -- -- 89
2020-06-18 21:00:00 12.8 9 Noroeste 22 Noroeste 0 -- -- 82
2020-06-18 20:00:00 13.6 10 Oeste 24 Noroeste 0 -- -- 73
2020-06-18 19:00:00 15.1 9 Noroeste 22 Oeste 0 -- -- 72
2020-06-18 18:00:00 15.5 10 Oeste 24 Oeste 0 -- -- 67
2020-06-18 17:00:00 15 8 Oeste 21 Sudoeste 0 -- -- 64
2020-06-18 16:00:00 14.9 6 Oeste 21 Noroeste 0 -- -- 63
2020-06-18 15:00:00 14.1 10 Noroeste 23 Oeste 0 -- -- 75
2020-06-18 14:00:00 13.7 10 Oeste 18 Noroeste 0 -- -- 76
2020-06-18 13:00:00 12.3 5 Noroeste 12 Sudoeste 0 -- -- 81
2020-06-18 12:00:00 10 2 Noroeste 9 Oeste 0 -- -- 90
2020-06-18 11:00:00 8.8 4 Noroeste 7 Noroeste 0 -- -- 93
2020-06-18 10:00:00 8.5 3 Noroeste 8 Norte 0 -- -- 93
2020-06-18 09:00:00 7.7 3 Sudoeste 8 Este 0 -- -- 95
2020-06-18 08:00:00 7.2 2 Este 7 Este 0 -- -- 100
2020-06-18 07:00:00 5.6 4 Oeste 6 Oeste 0 -- -- 99
2020-06-18 06:00:00 6.2 4 Oeste 7 Noroeste 0 -- -- 97
2020-06-18 05:00:00 6.4 2 Noroeste 10 Oeste 0 -- -- 97
2020-06-18 04:00:00 6.7 7 Noroeste 12 Oeste 0 -- -- 100
2020-06-18 03:00:00 7.5 6 Oeste 12 Noroeste 0 -- -- 100
2020-06-18 02:00:00 7.8 4 Noroeste 12 Noroeste 0 -- -- 100
2020-06-18 01:00:00 8.1 4 Oeste 8 Noroeste 0 -- -- 100
2020-06-18 00:00:00 8.3 5 Noroeste 9 Oeste 0 -- -- 100
2020-06-17 23:00:00 8.4 4 Oeste 11 Noroeste 0 -- -- 100
2020-06-17 22:00:00 8.9 3 Noroeste 11 Noroeste 0 -- -- 98
2020-06-17 21:00:00 9.3 5 Noroeste 15 Oeste 0 -- -- 98
2020-06-17 20:00:00 10.1 5 Noroeste 17 Noroeste 0 -- -- 93
2020-06-17 19:00:00 10.1 6 Noroeste 14 Noroeste 0 -- -- 96
2020-06-17 18:00:00 10 9 Oeste 18 Noroeste 0 -- -- 95
2020-06-17 17:00:00 9.9 11 Oeste 24 Oeste 0 -- -- 97
2020-06-17 16:00:00 9.6 11 Oeste 22 Noroeste 0 -- -- 95
2020-06-17 15:00:00 9.6 10 Oeste 17 Oeste 0 -- -- 98
2020-06-17 14:00:00 10 8 Oeste 17 Oeste 0 -- -- 100
2020-06-17 13:00:00 8.7 9 Oeste 18 Oeste 0 -- -- 100
2020-06-17 12:00:00 8.6 10 Oeste 18 Sudoeste 0 -- -- 100
2020-06-17 11:00:00 8.5 8 Oeste 15 Oeste 0.4 -- -- 100
2020-06-17 10:00:00 7.7 3 Sudoeste 13 Sudoeste 0 -- -- 100
2020-06-17 09:00:00 7.4 4 Oeste 13 Oeste 0 -- -- 100
2020-06-17 08:00:00 7.2 6 Oeste 15 Oeste 0 -- -- 100
2020-06-17 07:00:00 7.2 8 Oeste 14 Sudoeste 0 -- -- 100
2020-06-17 06:00:00 7.1 6 Oeste 14 Oeste 0 -- -- 100
2020-06-17 05:00:00 7.2 6 Oeste 14 Oeste 0 -- -- 100
2020-06-17 04:00:00 7.3 7 Noroeste 17 Oeste 0 -- -- 100
2020-06-17 03:00:00 7.6 8 Oeste 18 Oeste 0 -- -- 100
2020-06-17 02:00:00 7.7 9 Oeste 17 Oeste 0 -- -- 100
2020-06-17 01:00:00 7.8 10 Oeste 21 Oeste 0 -- -- 100
2020-06-17 00:00:00 8.1 8 Noroeste 24 Oeste 0 -- -- 100
2020-06-16 23:00:00 8.1 12 Oeste 23 Noroeste 0 -- -- 100
2020-06-16 22:00:00 8.4 12 Noroeste 26 Oeste 0 -- -- 100
2020-06-16 21:00:00 8.7 9 Oeste 26 Oeste 0.4 -- -- 100
2020-06-16 20:00:00 8.9 9 Oeste 20 Sudoeste 0.6 -- -- 100
2020-06-16 19:00:00 9.2 5 Oeste 15 Noroeste 0 -- -- 100
2020-06-16 18:00:00 9.1 6 Oeste 18 Oeste 0.2 -- -- 100
2020-06-16 17:00:00 9.2 5 Oeste 22 Oeste 1 -- -- 100
2020-06-16 16:00:00 9.3 10 Oeste 22 Oeste 0 -- -- 100
2020-06-16 15:00:00 9.3 7 Oeste 21 Sudoeste 0 -- -- 100
2020-06-16 14:00:00 8.7 7 Oeste 18 Oeste 0.2 -- -- 100
2020-06-16 13:00:00 8.4 6 Oeste 20 Sudoeste 0 -- -- 100
2020-06-16 12:00:00 8.3 9 Oeste 25 Oeste 0.6 -- -- 100
2020-06-16 11:00:00 8.2 11 Oeste 24 Noroeste 2 -- -- 100
2020-06-16 10:00:00 8.9 5 Sur 24 Sudoeste 1 -- -- 100
2020-06-16 09:00:00 8.7 8 Sur 27 Sudoeste 0 -- -- 100
2020-06-16 08:00:00 8.8 9 Sur 25 Sudoeste 0.8 -- -- 100
2020-06-16 07:00:00 8.6 7 Sur 24 Oeste 0.4 -- -- 100
2020-06-16 06:00:00 8.4 9 Sur 26 Oeste 1.6 -- -- 100
2020-06-16 05:00:00 8.5 8 Sudoeste 28 Oeste 0.2 -- -- 100
2020-06-16 04:00:00 8.7 7 Sudoeste 18 Oeste 0.2 -- -- 100
2020-06-16 03:00:00 8.8 8 Sur 22 Sudoeste 1.2 -- -- 100
2020-06-16 02:00:00 8.9 5 Sudoeste 19 Oeste 0.8 -- -- 100
2020-06-16 01:00:00 8.9 3 Sur 9 Sudoeste 0 -- -- 99
2020-06-16 00:00:00 8.9 3 Sur 16 Oeste 0 -- -- 98
2020-06-15 23:00:00 9.3 8 Oeste 23 Noroeste 0 -- -- 96
2020-06-15 22:00:00 9.7 6 Sudoeste 23 Sudoeste 0 -- -- 92
2020-06-15 21:00:00 10.5 9 Oeste 24 Oeste 0 -- -- 86
2020-06-15 20:00:00 10.7 8 Oeste 24 Sudoeste 0 -- -- 95
2020-06-15 19:00:00 10.7 6 Oeste 21 Sudoeste 0 -- -- 93
2020-06-15 18:00:00 10.8 7 Sudoeste 21 Sudoeste 0 -- -- 91
2020-06-15 17:00:00 11.3 7 Sur 23 Sudoeste 0 -- -- 87
2020-06-15 16:00:00 11.2 8 Sudoeste 23 Oeste 0 -- -- 87
2020-06-15 15:00:00 11.6 8 Sudoeste 22 Oeste 0 -- -- 86
2020-06-15 14:00:00 11.3 7 Sudoeste 22 Oeste 0 -- -- 87
2020-06-15 13:00:00 10.5 7 Sudoeste 22 Sudoeste 0 -- -- 89
2020-06-15 12:00:00 10.1 6 Sudoeste 23 Oeste 0 -- -- 97
2020-06-15 11:00:00 9.5 6 Oeste 18 Sur 0 -- -- 100
2020-06-15 10:00:00 8.3 6 Sur 24 Sur 0 -- -- 100
2020-06-15 09:00:00 7.8 8 Sur 29 Sudoeste 0.2 -- -- 100
2020-06-15 08:00:00 7.9 5 Sudeste 23 Noroeste 0 -- -- 100
2020-06-15 07:00:00 7.9 7 Sudoeste 19 Oeste 0.2 -- -- 100
2020-06-15 06:00:00 7.8 6 Sudoeste 18 Oeste 0 -- -- 100
2020-06-15 05:00:00 7.8 5 Sudoeste 21 Sudoeste 0 -- -- 100
2020-06-15 04:00:00 7.7 5 Sudoeste 16 Sudoeste 0 -- -- 100
2020-06-15 03:00:00 7.5 4 Sur 13 Oeste 0 -- -- 100
2020-06-15 02:00:00 7.7 5 Sudoeste 16 Sudoeste 0 -- -- 100
2020-06-15 01:00:00 8.2 3 Sur 13 Sudoeste 0 -- -- 100
2020-06-15 00:00:00 8.4 2 Sudeste 9 Sur 0 -- -- 100
2020-06-14 23:00:00 8.4 4 Sudeste 16 Sudoeste 0 -- -- 100
2020-06-14 22:00:00 8.7 6 Sudoeste 17 Sudoeste 0 -- -- 99
2020-06-14 21:00:00 9.6 3 Sudoeste 20 Oeste 0 -- -- 100
2020-06-14 20:00:00 8.9 10 Oeste 27 Oeste 0 -- -- 100
2020-06-14 19:00:00 9.2 8 Oeste 27 Sudoeste 0 -- -- 100
2020-06-14 18:00:00 9.2 8 Oeste 26 Sudoeste 0.4 -- -- 100
2020-06-14 17:00:00 9.2 9 Sudoeste 25 Sudoeste 0.6 -- -- 99
2020-06-14 16:00:00 9.2 8 Sudoeste 26 Oeste 0.6 -- -- 100
2020-06-14 15:00:00 9.4 9 Sudoeste 19 Sudoeste 0 -- -- 97
2020-06-14 14:00:00 10.2 5 Sudoeste 23 Sudoeste 0 -- -- 100
2020-06-14 13:00:00 8.3 5 Sur 26 Sudoeste 1.4 -- -- 100
2020-06-14 12:00:00 7.9 7 Sudoeste 22 Sur 0 -- -- 100
2020-06-14 11:00:00 8.4 8 Sur 21 Sudoeste 0 -- -- 97
2020-06-14 10:00:00 8.3 8 Sur 23 Sudoeste 0 -- -- 99
2020-06-14 09:00:00 7.5 7 Sudoeste 23 Sudoeste 0 -- -- 100
2020-06-14 08:00:00 7.2 7 Sur 27 Sudoeste 0 -- -- 100
2020-06-14 07:00:00 7.2 9 Sudoeste 22 Sudoeste 0.2 -- -- 99
2020-06-14 06:00:00 7.1 7 Sudoeste 19 Sudeste 0 -- -- 94
2020-06-14 05:00:00 7.1 8 Sudoeste 26 Oeste 0 -- -- 92
2020-06-14 04:00:00 6.7 6 Sudoeste 18 Oeste 0 -- -- 93
2020-06-14 03:00:00 6.6 8 Sudoeste 26 Sudoeste 0 -- -- 96
2020-06-14 02:00:00 6.6 8 Sudoeste 18 Sur 0 -- -- 97
2020-06-14 01:00:00 7 6 Sudoeste 19 Sudoeste 0 -- -- 98
2020-06-14 00:00:00 7.3 4 Sur 16 Oeste 0 -- -- 98
2020-06-13 23:00:00 7.5 5 Sudoeste 18 Sudoeste 0 -- -- 97
2020-06-13 22:00:00 7.8 4 Sur 16 Sur 0 -- -- 97
2020-06-13 21:00:00 8.2 6 Sudoeste 27 Sudoeste 0 -- -- 94
2020-06-13 20:00:00 9 6 Sur 22 Sudoeste 0 -- -- 92
2020-06-13 19:00:00 8.6 9 Sudoeste 27 Oeste 0 -- -- 91
2020-06-13 18:00:00 8.7 11 Oeste 26 Oeste 0 -- -- 96
2020-06-13 17:00:00 9.9 10 Oeste 32 Oeste 0 -- -- 91
2020-06-13 16:00:00 9.1 8 Sudoeste 26 Sudoeste 0 -- -- 98
2020-06-13 15:00:00 8.6 9 Sur 27 Sur 0 -- -- 100
2020-06-13 14:00:00 8.2 9 Sur 37 Oeste 0 -- -- 100
2020-06-13 13:00:00 7.7 13 Sudoeste 32 Oeste 2.4 -- -- 100
2020-06-13 12:00:00 7.7 10 Sur 33 Sudoeste 0.6 -- -- 100
2020-06-13 11:00:00 7.4 9 Sudoeste 35 Oeste 0 -- -- 100
2020-06-13 10:00:00 6.9 11 Sudoeste 31 Sudoeste 0.4 -- -- 100
2020-06-13 09:00:00 6.7 10 Sur 32 Sudoeste 0.4 -- -- 100
2020-06-13 08:00:00 6.5 10 Sur 31 Sudoeste 0.2 -- -- 100
2020-06-13 07:00:00 6.2 12 Sudoeste 28 Sudoeste 0 -- -- 100
2020-06-13 06:00:00 6.2 9 Sur 29 Sur 0 -- -- 100
2020-06-13 05:00:00 6.2 10 Sur 29 Sur 0 -- -- 100
2020-06-13 04:00:00 6.2 8 Sur 24 Sudoeste 0 -- -- 100
2020-06-13 03:00:00 6.3 9 Sudoeste 29 Sudoeste 0 -- -- 100
2020-06-13 02:00:00 6.5 8 Sudoeste 34 Sudoeste 0 -- -- 100
2020-06-13 01:00:00 6.6 14 Oeste 41 Sudoeste 1.8 -- -- 100
2020-06-13 00:00:00 6.9 12 Oeste 33 Oeste 0.2 -- -- 100
2020-06-12 23:00:00 6.8 15 Oeste 41 Oeste 0.8 -- -- 100
2020-06-12 22:00:00 7.3 10 Oeste 40 Sudoeste 1.6 -- -- 100
2020-06-12 21:00:00 7.4 14 Oeste 40 Oeste 1.8 -- -- 100
2020-06-12 20:00:00 7.6 9 Oeste 28 Sudoeste 0.6 -- -- 100
2020-06-12 19:00:00 8.7 8 Oeste 29 Oeste 0.2 -- -- 97
2020-06-12 18:00:00 9.4 10 Oeste 24 Oeste 0 -- -- 100
2020-06-12 17:00:00 8.9 10 Oeste 30 Sudoeste 0 -- -- 100
2020-06-12 16:00:00 8.7 10 Oeste 35 Oeste 0.2 -- -- 100
2020-06-12 15:00:00 7.9 9 Oeste 35 Sudoeste 0.2 -- -- 100
2020-06-12 14:00:00 7.4 11 Oeste 33 Sudoeste 1 -- -- 100
2020-06-12 13:00:00 6.9 17 Oeste 41 Oeste 2.6 -- -- 100
2020-06-12 12:00:00 6.5 11 Sur 32 Sur 1.8 -- -- 100
2020-06-12 11:00:00 6 10 Sur 38 Sur 0.8 -- -- 100
2020-06-12 10:00:00 5.1 9 Sur 30 Sudoeste 0.8 -- -- 100
2020-06-12 09:00:00 5.1 12 Sudoeste 33 Oeste 0 -- -- 100
2020-06-12 08:00:00 5.1 9 Sudoeste 30 Sur 0 -- -- 100
2020-06-12 07:00:00 4.8 12 Oeste 30 Oeste 0 -- -- 100
2020-06-12 06:00:00 4.9 13 Oeste 33 Oeste 0 -- -- 100
2020-06-12 05:00:00 5.2 13 Oeste 32 Oeste 0 -- -- 100
2020-06-12 04:00:00 5.7 17 Oeste 40 Sudoeste 0.6 -- -- 100
2020-06-12 03:00:00 6.2 18 Oeste 52 Oeste 1 -- -- 100
2020-06-12 02:00:00 6.3 16 Oeste 49 Sudoeste 5.2 -- -- 100
2020-06-12 01:00:00 6.1 15 Sur 45 Sudoeste 3 -- -- 100
2020-06-12 00:00:00 5.6 14 Sur 49 Sudoeste 2 -- -- 100